createdAt,value
2023-04-19T00:01:34.352Z,11.73
2023-04-19T00:04:04.129Z,11.65
2023-04-19T00:06:34.531Z,11.55
2023-04-19T00:09:05.373Z,11.46
2023-04-19T00:11:34.473Z,11.41
2023-04-19T00:14:03.677Z,11.69
2023-04-19T00:16:43.775Z,11.55
2023-04-19T00:19:17.919Z,11.73
2023-04-19T00:21:48.411Z,11.69
2023-04-19T00:24:19.187Z,11.75
2023-04-19T00:26:52.881Z,11.69
2023-04-19T00:29:22.402Z,11.75
2023-04-19T00:31:53.207Z,11.43
2023-04-19T00:34:24.189Z,11.72
2023-04-19T00:36:54.396Z,11.51
2023-04-19T00:39:25.351Z,11.34
2023-04-19T00:41:55.604Z,11.62
2023-04-19T00:44:25.339Z,11.48
2023-04-19T00:46:57.878Z,11.47
2023-04-19T00:49:27.363Z,11.49
2023-04-19T00:51:56.901Z,11.24
2023-04-19T00:54:27.821Z,11.43
2023-04-19T00:56:58.417Z,11.52
2023-04-19T00:59:27.862Z,11.45
2023-04-19T01:01:57.204Z,11.38
2023-04-19T01:04:26.767Z,11.32
2023-04-19T01:06:56.267Z,11.35
2023-04-19T01:09:38.782Z,11.36
2023-04-19T01:12:08.591Z,11.34
2023-04-19T01:14:37.557Z,11.16
2023-04-19T01:17:07.517Z,11.23
2023-04-19T01:19:37.604Z,11.14
2023-04-19T01:22:07.104Z,11.16
2023-04-19T01:24:40.184Z,11.20
2023-04-19T01:27:11.493Z,11.13
2023-04-19T01:29:40.735Z,11.04
2023-04-19T01:32:09.854Z,11.22
2023-04-19T01:34:38.874Z,11.28
2023-04-19T01:37:07.936Z,11.04
2023-04-19T01:39:40.716Z,11.03
2023-04-19T01:42:09.873Z,10.81
2023-04-19T01:44:39.049Z,10.76
2023-04-19T01:47:11.027Z,10.60
2023-04-19T01:49:42.454Z,10.46
2023-04-19T01:52:11.491Z,10.48
2023-04-19T01:54:41.794Z,10.39
2023-04-19T01:57:10.912Z,10.21
2023-04-19T01:59:40.056Z,10.15
2023-04-19T02:02:09.383Z,10.02
2023-04-19T02:04:38.488Z,9.88
2023-04-19T02:07:08.492Z,9.72
2023-04-19T02:09:37.717Z,9.73
2023-04-19T02:12:08.578Z,9.58
2023-04-19T02:14:37.787Z,9.58
2023-04-19T02:17:06.907Z,9.40
2023-04-19T02:19:36.440Z,9.46
2023-04-19T02:22:07.349Z,9.48
2023-04-19T02:24:36.543Z,9.47
2023-04-19T02:27:16.473Z,9.43
2023-04-19T02:29:56.105Z,9.40
2023-04-19T02:32:27.637Z,9.11
2023-04-19T02:35:00.691Z,9.19
2023-04-19T02:37:31.377Z,9.21
2023-04-19T02:40:02.372Z,9.13
2023-04-19T02:42:37.806Z,8.91
2023-04-19T02:45:09.493Z,8.94
2023-04-19T02:47:39.953Z,8.94
2023-04-19T02:50:12.007Z,9.09
2023-04-19T02:52:47.767Z,9.06
2023-04-19T02:55:17.123Z,9.05
2023-04-19T02:57:50.200Z,9.05
2023-04-19T03:00:20.086Z,9.06
2023-04-19T03:03:04.335Z,9.13
2023-04-19T03:05:35.354Z,9.11
2023-04-19T03:08:05.739Z,9.28
2023-04-19T03:10:34.958Z,9.22
2023-04-19T03:13:06.155Z,9.26
2023-04-19T03:15:35.273Z,9.14
2023-04-19T03:18:04.701Z,9.42
2023-04-19T03:20:34.512Z,9.36
2023-04-19T03:23:07.720Z,9.56
2023-04-19T03:25:37.204Z,9.51
2023-04-19T03:28:21.164Z,9.58
2023-04-19T03:31:11.715Z,9.79
2023-04-19T03:33:41.913Z,9.87
2023-04-19T03:36:13.700Z,10.02
2023-04-19T03:38:46.014Z,10.24
2023-04-19T03:41:20.820Z,10.38
2023-04-19T03:43:54.880Z,10.53
2023-04-19T03:46:26.815Z,10.54
2023-04-19T03:48:55.886Z,10.48
2023-04-19T03:51:32.763Z,10.58
2023-04-19T03:54:03.092Z,10.35
2023-04-19T03:56:34.889Z,10.30
2023-04-19T03:59:05.656Z,10.38
2023-04-19T04:01:42.394Z,10.27
2023-04-19T04:04:13.001Z,10.25
2023-04-19T04:06:43.447Z,10.32
2023-04-19T04:09:12.482Z,10.52
2023-04-19T04:11:41.432Z,10.62
2023-04-19T04:14:15.684Z,10.71
2023-04-19T04:16:45.019Z,10.68
2023-04-19T04:19:14.815Z,10.78
2023-04-19T04:21:44.685Z,10.75
2023-04-19T04:24:14.923Z,10.75
2023-04-19T04:27:04.406Z,10.62
2023-04-19T04:29:38.232Z,10.78
2023-04-19T04:32:11.578Z,10.76
2023-04-19T04:34:44.396Z,10.87
2023-04-19T04:37:19.149Z,10.94
2023-04-19T04:39:49.554Z,11.13
2023-04-19T04:42:21.690Z,11.17
2023-04-19T04:44:52.572Z,11.27
2023-04-19T04:47:22.276Z,11.50
2023-04-19T04:49:56.734Z,11.63
2023-04-19T04:52:25.950Z,11.66
2023-04-19T04:55:07.802Z,11.74
2023-04-19T04:57:39.775Z,11.70
2023-04-19T05:00:14.383Z,11.74
2023-04-19T05:02:58.277Z,12.01
2023-04-19T05:05:27.647Z,12.04
2023-04-19T05:07:58.212Z,12.10
2023-04-19T05:10:27.756Z,12.33
2023-04-19T05:12:57.921Z,12.52
2023-04-19T05:15:28.825Z,12.59
2023-04-19T05:17:58.382Z,12.87
2023-04-19T05:20:28.317Z,13.01
2023-04-19T05:23:11.136Z,12.61
2023-04-19T05:25:41.187Z,12.98
2023-04-19T05:28:12.996Z,12.64
2023-04-19T05:31:01.828Z,11.47
2023-04-19T05:33:36.219Z,10.87
2023-04-19T05:36:05.986Z,12.77
2023-04-19T05:38:35.178Z,12.79
2023-04-19T05:41:05.624Z,12.98
2023-04-19T05:43:34.732Z,13.07
2023-04-19T05:46:06.189Z,12.95
2023-04-19T05:48:35.808Z,12.89
2023-04-19T05:51:39.936Z,12.80
2023-04-19T05:54:35.893Z,12.35
2023-04-19T05:57:05.952Z,12.40
2023-04-19T05:59:37.259Z,12.70
2023-04-19T06:02:08.799Z,12.87
2023-04-19T06:04:38.389Z,12.43
2023-04-19T06:07:17.744Z,12.51
2023-04-19T06:09:57.823Z,12.90
2023-04-19T06:12:27.355Z,12.58
2023-04-19T06:14:56.766Z,12.93
2023-04-19T06:17:27.813Z,13.29
2023-04-19T06:19:57.186Z,13.55
2023-04-19T06:22:26.798Z,13.82
2023-04-19T06:24:56.012Z,13.61
2023-04-19T06:27:25.162Z,13.74
2023-04-19T06:29:54.496Z,13.19
2023-04-19T06:32:42.565Z,13.74
2023-04-19T06:35:12.174Z,13.86
2023-04-19T06:37:41.243Z,13.51
2023-04-19T06:40:11.678Z,13.31
2023-04-19T06:42:41.090Z,13.78
2023-04-19T06:45:11.459Z,13.83
2023-04-19T06:47:42.111Z,14.22
2023-04-19T06:50:12.257Z,14.42
2023-04-19T06:52:41.430Z,14.24
2023-04-19T06:55:11.256Z,14.29
2023-04-19T06:57:40.895Z,14.68
2023-04-19T07:00:11.715Z,14.98
2023-04-19T07:02:42.211Z,14.65
2023-04-19T07:05:12.985Z,14.90
2023-04-19T07:07:42.345Z,14.83
2023-04-19T07:10:12.979Z,14.91
2023-04-19T07:12:42.021Z,15.02
2023-04-19T07:15:12.067Z,15.53
2023-04-19T07:17:42.966Z,15.57
2023-04-19T07:20:15.263Z,15.59
2023-04-19T07:22:44.888Z,15.61
2023-04-19T07:25:14.160Z,15.38
2023-04-19T07:27:43.216Z,15.47
2023-04-19T07:30:15.249Z,15.92
2023-04-19T07:32:48.781Z,15.98
2023-04-19T07:35:18.248Z,15.77
2023-04-19T07:37:47.602Z,16.16
2023-04-19T07:40:16.929Z,15.63
2023-04-19T07:42:46.446Z,15.42
2023-04-19T07:45:20.267Z,15.49
2023-04-19T07:47:50.931Z,16.03
2023-04-19T07:50:21.900Z,16.57
2023-04-19T07:52:59.336Z,16.32
2023-04-19T07:55:28.408Z,15.94
2023-04-19T07:57:57.533Z,16.05
2023-04-19T08:00:27.159Z,16.61
2023-04-19T08:03:04.813Z,16.27
2023-04-19T08:08:31.938Z,16.42
2023-04-19T08:11:03.471Z,16.19
2023-04-19T08:13:32.693Z,17.38
2023-04-19T08:18:35.654Z,17.16
2023-04-19T08:21:05.216Z,17.66
2023-04-19T08:23:47.404Z,17.46
2023-04-19T08:26:17.572Z,18.10
2023-04-19T08:28:46.821Z,17.96
2023-04-19T08:31:16.113Z,18.32
2023-04-19T08:33:46.501Z,18.53
2023-04-19T08:36:19.503Z,17.87
2023-04-19T08:39:04.333Z,18.33
2023-04-19T08:41:37.005Z,18.08
2023-04-19T08:44:08.669Z,18.07
2023-04-19T08:46:38.275Z,17.45
2023-04-19T08:49:10.846Z,18.05
2023-04-19T08:51:41.229Z,17.58
2023-04-19T08:54:12.228Z,18.64
2023-04-19T08:56:41.792Z,17.65
2023-04-19T08:59:18.051Z,17.50
2023-04-19T09:01:48.316Z,18.11
2023-04-19T09:04:35.456Z,18.43
2023-04-19T09:07:05.154Z,17.96
2023-04-19T09:09:42.895Z,19.24
2023-04-19T09:12:21.141Z,19.89
2023-04-19T09:15:01.370Z,20.23
2023-04-19T09:17:33.733Z,19.23
2023-04-19T09:20:05.968Z,18.83
2023-04-19T09:22:35.669Z,19.76
2023-04-19T09:27:37.725Z,21.01
2023-04-19T09:30:17.532Z,19.80
2023-04-19T09:32:53.899Z,19.36
2023-04-19T09:35:42.601Z,19.73
2023-04-19T09:38:18.133Z,19.98
2023-04-19T09:40:47.748Z,19.64
2023-04-19T09:43:51.703Z,21.07
2023-04-19T09:46:32.817Z,21.08
2023-04-19T09:49:27.800Z,20.33
2023-04-19T09:52:21.087Z,21.03
2023-04-19T09:54:53.806Z,21.10
2023-04-19T09:57:31.064Z,19.93
2023-04-19T10:00:01.279Z,20.24
2023-04-19T10:02:34.250Z,20.55
2023-04-19T10:07:41.581Z,21.89
2023-04-19T10:10:19.124Z,20.70
2023-04-19T10:15:33.818Z,21.03
2023-04-19T10:18:13.016Z,20.98
2023-04-19T10:20:51.312Z,21.17
2023-04-19T10:23:22.010Z,21.60
2023-04-19T10:25:56.494Z,22.52
2023-04-19T10:28:25.808Z,20.87
2023-04-19T10:31:01.880Z,19.61
2023-04-19T10:33:36.417Z,22.45
2023-04-19T10:36:09.820Z,21.91
2023-04-19T10:38:43.173Z,21.55
2023-04-19T10:41:17.383Z,21.79
2023-04-19T10:43:48.487Z,23.31
2023-04-19T10:46:40.280Z,25.36
2023-04-19T10:49:13.806Z,22.65
2023-04-19T10:51:52.028Z,28.35
2023-04-19T10:54:32.838Z,26.82
2023-04-19T10:57:04.681Z,26.33
2023-04-19T10:59:35.199Z,28.50
2023-04-19T11:02:05.330Z,26.99
2023-04-19T11:05:14.009Z,27.44
2023-04-19T11:07:46.278Z,26.87
2023-04-19T11:10:30.147Z,25.21
2023-04-19T11:12:59.728Z,24.67
2023-04-19T11:15:28.922Z,22.55
2023-04-19T11:18:11.926Z,23.46
2023-04-19T11:20:44.733Z,22.12
2023-04-19T11:23:18.028Z,22.18
2023-04-19T11:25:48.586Z,22.82
2023-04-19T11:28:18.722Z,25.11
2023-04-19T11:30:48.179Z,30.46
2023-04-19T11:33:24.808Z,30.95
2023-04-19T11:36:01.977Z,33.12
2023-04-19T11:38:31.986Z,30.14
2023-04-19T11:41:06.359Z,25.76
2023-04-19T11:43:36.398Z,21.82
2023-04-19T11:46:10.544Z,22.15
2023-04-19T11:48:40.129Z,23.39
2023-04-19T11:51:09.756Z,26.50
2023-04-19T11:53:41.240Z,30.86
2023-04-19T11:56:11.700Z,26.21
2023-04-19T11:58:45.005Z,23.44
2023-04-19T12:01:17.677Z,23.40
2023-04-19T12:03:48.301Z,22.46
2023-04-19T12:06:18.774Z,22.45
2023-04-19T12:08:49.686Z,22.12
2023-04-19T12:11:29.085Z,20.95
2023-04-19T12:14:26.859Z,19.90
2023-04-19T12:17:16.128Z,20.32
2023-04-19T12:19:46.730Z,20.26
2023-04-19T12:22:20.474Z,20.32
2023-04-19T12:24:53.487Z,19.41
2023-04-19T12:27:25.775Z,19.24
2023-04-19T12:29:55.386Z,19.11
2023-04-19T12:32:24.850Z,18.95
2023-04-19T12:34:56.228Z,18.84
2023-04-19T12:37:34.434Z,18.09
2023-04-19T12:40:07.066Z,18.47
2023-04-19T12:42:48.915Z,18.46
2023-04-19T12:45:40.875Z,17.91
2023-04-19T12:48:12.827Z,18.59
2023-04-19T12:50:45.711Z,18.88
2023-04-19T12:53:53.984Z,17.88
2023-04-19T12:56:23.337Z,17.38
2023-04-19T12:58:54.642Z,18.55
2023-04-19T13:01:24.116Z,18.15
2023-04-19T13:03:55.424Z,18.47
2023-04-19T13:06:31.339Z,18.75
2023-04-19T13:11:52.439Z,18.90
2023-04-19T13:14:25.420Z,19.32
2023-04-19T13:16:55.003Z,18.76
2023-04-19T13:19:26.886Z,18.70
2023-04-19T13:21:55.937Z,18.46
2023-04-19T13:24:27.554Z,18.38
2023-04-19T13:26:59.301Z,18.67
2023-04-19T13:29:38.024Z,18.39
2023-04-19T13:32:12.632Z,18.15
2023-04-19T13:34:44.772Z,18.22
2023-04-19T13:37:14.593Z,17.91
2023-04-19T13:39:48.319Z,17.17
2023-04-19T13:42:20.371Z,17.83
2023-04-19T13:44:55.045Z,17.67
2023-04-19T13:47:27.095Z,17.70
2023-04-19T13:49:59.126Z,17.28
2023-04-19T13:52:29.139Z,17.27
2023-04-19T13:54:58.933Z,17.34
2023-04-19T13:57:28.556Z,16.89
2023-04-19T14:02:46.111Z,16.34
2023-04-19T14:05:17.023Z,16.79
2023-04-19T14:07:52.507Z,16.70
2023-04-19T14:10:26.967Z,16.88
2023-04-19T14:12:56.721Z,17.29
2023-04-19T14:15:27.140Z,16.69
2023-04-19T14:17:58.508Z,16.35
2023-04-19T14:20:29.360Z,16.36
2023-04-19T14:23:06.178Z,16.72
2023-04-19T14:25:36.871Z,16.35
2023-04-19T14:28:16.609Z,16.46
2023-04-19T14:30:47.242Z,17.02
2023-04-19T14:33:18.921Z,17.13
2023-04-19T14:35:48.960Z,16.44
2023-04-19T14:38:21.079Z,16.63
2023-04-19T14:40:53.412Z,16.92
2023-04-19T14:43:23.806Z,16.94
2023-04-19T14:45:55.626Z,16.70
2023-04-19T14:48:27.682Z,16.83
2023-04-19T14:51:02.256Z,16.83
2023-04-19T14:53:33.933Z,16.91
2023-04-19T14:56:05.902Z,16.56
2023-04-19T14:58:37.910Z,16.78
2023-04-19T15:01:15.208Z,16.53
2023-04-19T15:03:53.831Z,16.68
2023-04-19T15:06:23.088Z,16.54
2023-04-19T15:08:55.154Z,16.67
2023-04-19T15:11:24.838Z,16.61
2023-04-19T15:13:56.271Z,16.61
2023-04-19T15:16:28.992Z,16.68
2023-04-19T15:18:58.650Z,16.61
2023-04-19T15:21:31.707Z,16.55
2023-04-19T15:24:00.843Z,16.88
2023-04-19T15:26:30.195Z,16.32
2023-04-19T15:28:59.683Z,16.07
2023-04-19T15:31:35.483Z,16.77
2023-04-19T15:34:06.795Z,16.86
2023-04-19T15:36:36.263Z,16.91
2023-04-19T15:39:05.881Z,16.51
2023-04-19T15:41:34.990Z,16.70
2023-04-19T15:44:06.209Z,16.65
2023-04-19T15:46:39.426Z,16.48
2023-04-19T15:49:08.871Z,16.42
2023-04-19T15:51:38.386Z,16.66
2023-04-19T15:54:07.757Z,16.66
2023-04-19T15:56:48.481Z,16.54
2023-04-19T15:59:19.852Z,16.23
2023-04-19T16:01:50.639Z,16.02
2023-04-19T16:04:23.446Z,16.05
2023-04-19T16:06:55.139Z,16.21
2023-04-19T16:09:24.653Z,16.20
2023-04-19T16:11:54.337Z,16.08
2023-04-19T16:14:24.153Z,16.12
2023-04-19T16:17:00.950Z,15.92
2023-04-19T16:19:39.102Z,15.91
2023-04-19T16:22:09.112Z,15.71
2023-04-19T16:24:39.058Z,15.51
2023-04-19T16:27:14.023Z,15.70
2023-04-19T16:29:44.895Z,15.80
2023-04-19T16:32:18.124Z,16.00
2023-04-19T16:34:51.556Z,15.92
2023-04-19T16:37:20.894Z,16.02
2023-04-19T16:39:52.983Z,15.82
2023-04-19T16:42:27.003Z,15.73
2023-04-19T16:44:56.339Z,15.68
2023-04-19T16:47:31.413Z,15.77
2023-04-19T16:50:04.692Z,15.45
2023-04-19T16:52:35.501Z,15.47
2023-04-19T16:55:05.129Z,15.71
2023-04-19T16:57:43.587Z,15.64
2023-04-19T17:00:13.935Z,15.76
2023-04-19T17:02:44.586Z,15.55
2023-04-19T17:05:18.584Z,15.61
2023-04-19T17:07:48.070Z,15.44
2023-04-19T17:10:27.449Z,15.11
2023-04-19T17:13:07.147Z,15.22
2023-04-19T17:15:38.244Z,15.13
2023-04-19T17:18:10.027Z,15.10
2023-04-19T17:20:39.683Z,15.15
2023-04-19T17:23:09.487Z,15.02
2023-04-19T17:25:39.041Z,14.92
2023-04-19T17:28:08.347Z,14.89
2023-04-19T17:30:37.274Z,14.84
2023-04-19T17:33:07.030Z,15.06
2023-04-19T17:35:38.177Z,15.07
2023-04-19T17:38:10.171Z,15.08
2023-04-19T17:40:42.070Z,14.98
2023-04-19T17:43:11.836Z,15.00
2023-04-19T17:45:40.995Z,14.89
2023-04-19T17:48:10.373Z,14.88
2023-04-19T17:50:44.185Z,14.97
2023-04-19T17:53:13.068Z,14.81
2023-04-19T17:55:42.053Z,14.85
2023-04-19T17:58:11.123Z,14.93
2023-04-19T18:00:42.082Z,14.69
2023-04-19T18:03:11.920Z,14.44
2023-04-19T18:05:43.458Z,14.55
2023-04-19T18:08:13.459Z,14.51
2023-04-19T18:10:44.546Z,14.43
2023-04-19T18:13:13.676Z,14.18
2023-04-19T18:15:46.257Z,14.25
2023-04-19T18:18:16.005Z,14.13
2023-04-19T18:20:46.774Z,14.24
2023-04-19T18:23:22.141Z,14.03
2023-04-19T18:26:03.984Z,13.69
2023-04-19T18:28:35.528Z,14.06
2023-04-19T18:31:12.480Z,13.84
2023-04-19T18:33:44.523Z,13.64
2023-04-19T18:36:19.193Z,13.61
2023-04-19T18:38:48.789Z,13.50
2023-04-19T18:41:18.310Z,13.37
2023-04-19T18:43:59.817Z,13.31
2023-04-19T18:46:57.216Z,13.11
2023-04-19T18:49:26.814Z,13.26
2023-04-19T18:51:57.652Z,13.07
2023-04-19T18:54:26.693Z,13.17
2023-04-19T18:57:21.791Z,13.07
2023-04-19T18:59:45.850Z,13.07
2023-04-19T19:02:15.353Z,13.15
2023-04-19T19:04:56.035Z,13.03
2023-04-19T19:07:36.389Z,12.94
2023-04-19T19:12:43.259Z,12.85
2023-04-19T19:15:12.531Z,12.94
2023-04-19T19:17:42.700Z,13.01
2023-04-19T19:20:13.069Z,13.03
2023-04-19T19:22:43.750Z,12.98
2023-04-19T19:25:13.335Z,12.89
2023-04-19T19:27:58.450Z,12.94
2023-04-19T19:30:34.100Z,13.09
2023-04-19T19:33:05.137Z,13.11
2023-04-19T19:35:34.720Z,12.85
2023-04-19T19:38:05.607Z,13.00
2023-04-19T19:41:13.975Z,13.00
2023-04-19T19:43:31.576Z,13.02
2023-04-19T19:46:01.918Z,12.88
2023-04-19T19:48:40.632Z,12.56
2023-04-19T19:53:45.522Z,12.46
2023-04-19T19:56:21.908Z,12.42
2023-04-19T19:58:53.011Z,12.54
2023-04-19T20:01:23.272Z,12.74
2023-04-19T20:03:55.822Z,12.51
2023-04-19T20:07:15.576Z,12.48
2023-04-19T20:09:19.981Z,12.40
2023-04-19T20:11:55.212Z,12.48
2023-04-19T20:14:28.708Z,12.44
2023-04-19T20:16:57.907Z,12.59
2023-04-19T20:19:27.818Z,12.57
2023-04-19T20:21:57.229Z,12.44
2023-04-19T20:24:29.705Z,12.50
2023-04-19T20:26:59.482Z,12.58
2023-04-19T20:29:28.857Z,12.37
2023-04-19T20:31:58.015Z,12.47
2023-04-19T20:34:27.139Z,12.32
2023-04-19T20:36:56.993Z,12.35
2023-04-19T20:39:27.914Z,12.46
2023-04-19T20:41:57.898Z,12.70
2023-04-19T20:44:26.978Z,12.50
2023-04-19T20:46:56.270Z,12.56
2023-04-19T20:49:25.623Z,12.38
2023-04-19T20:51:55.032Z,12.21
2023-04-19T20:54:24.952Z,12.56
2023-04-19T20:57:01.005Z,12.71
2023-04-19T20:59:29.975Z,12.26
2023-04-19T21:02:00.033Z,12.22
2023-04-19T21:04:40.936Z,12.22
2023-04-19T21:07:10.570Z,12.40
2023-04-19T21:09:39.939Z,12.46
2023-04-19T21:12:10.586Z,12.56
2023-04-19T21:14:40.059Z,12.64
2023-04-19T21:17:12.012Z,12.56
2023-04-19T21:19:41.559Z,12.70
2023-04-19T21:22:12.006Z,12.51
2023-04-19T21:24:41.115Z,12.68
2023-04-19T21:27:11.580Z,12.55
2023-04-19T21:29:44.020Z,12.49
2023-04-19T21:32:13.111Z,12.49
2023-04-19T21:34:43.323Z,12.49
2023-04-19T21:37:12.370Z,12.44
2023-04-19T21:39:41.617Z,12.39
2023-04-19T21:42:12.540Z,12.24
2023-04-19T21:44:41.805Z,12.27
2023-04-19T21:47:11.666Z,12.23
2023-04-19T21:49:41.315Z,12.38
2023-04-19T21:52:10.967Z,12.29
2023-04-19T21:54:40.233Z,12.18
2023-04-19T21:57:12.740Z,11.88
2023-04-19T21:59:42.064Z,12.29
2023-04-19T22:02:11.201Z,12.54
2023-04-19T22:04:41.663Z,12.70
2023-04-19T22:07:11.523Z,12.52
2023-04-19T22:09:41.560Z,12.59
2023-04-19T22:12:13.465Z,12.37
2023-04-19T22:14:44.349Z,12.42
2023-04-19T22:17:13.659Z,12.29
2023-04-19T22:19:42.830Z,12.34
2023-04-19T22:22:14.825Z,12.30
2023-04-19T22:24:56.165Z,12.47
2023-04-19T22:27:27.172Z,12.63
2023-04-19T22:29:56.231Z,12.55
2023-04-19T22:32:25.285Z,12.26
2023-04-19T22:34:54.470Z,12.23
2023-04-19T22:37:24.357Z,12.44
2023-04-19T22:39:53.656Z,12.48
2023-04-19T22:42:23.347Z,12.56
2023-04-19T22:44:56.247Z,12.16
2023-04-19T22:47:25.999Z,12.25
2023-04-19T22:49:56.052Z,12.42
2023-04-19T22:52:25.933Z,12.15
2023-04-19T22:54:55.062Z,12.20
2023-04-19T22:57:24.247Z,12.27
2023-04-19T22:59:53.302Z,12.28
2023-04-19T23:02:24.319Z,12.30
2023-04-19T23:04:54.420Z,12.15
2023-04-19T23:07:23.859Z,12.57
2023-04-19T23:09:54.928Z,12.41
2023-04-19T23:12:24.191Z,12.10
2023-04-19T23:14:53.191Z,12.20
2023-04-19T23:17:23.728Z,11.83
2023-04-19T23:19:55.654Z,12.68
2023-04-19T23:22:24.906Z,12.54
2023-04-19T23:24:56.117Z,12.13
2023-04-19T23:27:28.232Z,12.40
2023-04-19T23:29:57.193Z,12.15
2023-04-19T23:32:27.786Z,12.19
2023-04-19T23:34:56.927Z,12.18
2023-04-19T23:37:25.940Z,11.90
2023-04-19T23:39:55.310Z,12.27
2023-04-19T23:42:24.363Z,12.05
2023-04-19T23:44:54.448Z,12.15
2023-04-19T23:47:23.742Z,12.25
2023-04-19T23:49:54.178Z,12.29
2023-04-19T23:52:25.272Z,12.05
2023-04-19T23:54:54.628Z,12.08
2023-04-19T23:57:24.419Z,12.08
2023-04-19T23:59:53.490Z,12.17
